createdAt,value
2018-11-05T00:00:56.049Z,18.98
2018-11-05T00:02:01.857Z,18.17
2018-11-05T00:03:06.984Z,15.60
2018-11-05T00:04:11.191Z,20.23
2018-11-05T00:05:16.338Z,21.33
2018-11-05T00:06:21.818Z,19.98
2018-11-05T00:07:26.337Z,19.00
2018-11-05T00:08:31.609Z,19.32
2018-11-05T00:09:39.644Z,22.93
2018-11-05T00:10:45.173Z,19.52
2018-11-05T00:11:49.812Z,18.45
2018-11-05T00:12:54.349Z,17.95
2018-11-05T00:13:58.651Z,20.77
2018-11-05T00:15:03.157Z,24.12
2018-11-05T00:16:07.895Z,19.32
2018-11-05T00:17:18.164Z,22.48
2018-11-05T00:18:22.912Z,21.00
2018-11-05T00:19:27.207Z,18.35
2018-11-05T00:20:33.795Z,22.70
2018-11-05T00:21:38.203Z,18.15
2018-11-05T00:22:43.699Z,24.07
2018-11-05T00:23:47.907Z,20.10
2018-11-05T00:24:52.154Z,22.93
2018-11-05T00:25:56.317Z,19.42
2018-11-05T00:27:00.517Z,19.98
2018-11-05T00:28:04.865Z,24.00
2018-11-05T00:29:09.123Z,20.88
2018-11-05T00:30:14.526Z,20.17
2018-11-05T00:31:18.694Z,24.82
2018-11-05T00:32:22.986Z,20.32
2018-11-05T00:33:27.179Z,21.95
2018-11-05T00:34:31.685Z,21.65
2018-11-05T00:35:36.407Z,19.50
2018-11-05T00:36:40.689Z,20.23
2018-11-05T00:37:44.934Z,18.77
2018-11-05T00:38:50.029Z,22.30
2018-11-05T00:39:54.777Z,17.15
2018-11-05T00:41:00.140Z,19.57
2018-11-05T00:42:04.508Z,20.35
2018-11-05T00:43:08.836Z,18.90
2018-11-05T00:44:13.748Z,17.85
2018-11-05T00:45:18.353Z,20.30
2018-11-05T00:46:22.559Z,19.20
2018-11-05T00:47:27.387Z,17.50
2018-11-05T00:48:31.797Z,18.52
2018-11-05T00:49:36.058Z,19.48
2018-11-05T00:50:41.548Z,19.92
2018-11-05T00:51:46.457Z,24.27
2018-11-05T00:52:52.499Z,19.60
2018-11-05T00:53:58.123Z,17.70
2018-11-05T00:55:02.482Z,19.10
2018-11-05T00:56:07.668Z,18.05
2018-11-05T00:57:11.890Z,20.05
2018-11-05T00:58:16.304Z,20.70
2018-11-05T00:59:20.765Z,19.15
2018-11-05T01:00:25.186Z,18.95
2018-11-05T01:01:30.767Z,20.95
2018-11-05T01:02:35.327Z,23.35
2018-11-05T01:03:41.467Z,20.95
2018-11-05T01:04:45.941Z,20.30
2018-11-05T01:06:53.241Z,21.37
2018-11-05T01:07:57.406Z,23.27
2018-11-05T01:09:01.655Z,19.77
2018-11-05T01:10:06.692Z,23.55
2018-11-05T01:11:11.482Z,22.20
2018-11-05T01:12:15.806Z,22.60
2018-11-05T01:13:19.991Z,21.07
2018-11-05T01:14:24.301Z,25.10
2018-11-05T01:15:28.484Z,20.88
2018-11-05T01:16:32.710Z,22.60
2018-11-05T01:17:36.898Z,23.57
2018-11-05T01:18:41.302Z,23.18
2018-11-05T01:19:45.899Z,19.92
2018-11-05T01:20:50.069Z,22.75
2018-11-05T01:21:54.345Z,21.85
2018-11-05T01:22:58.823Z,18.60
2018-11-05T01:24:03.105Z,21.75
2018-11-05T01:25:07.895Z,22.02
2018-11-05T01:26:12.138Z,21.68
2018-11-05T01:27:16.381Z,22.77
2018-11-05T01:28:20.823Z,18.20
2018-11-05T01:29:25.406Z,19.52
2018-11-05T01:30:29.622Z,23.35
2018-11-05T01:31:33.837Z,21.80
2018-11-05T01:32:38.046Z,21.48
2018-11-05T01:33:42.245Z,20.20
2018-11-05T01:34:46.389Z,20.90
2018-11-05T01:35:51.106Z,17.73
2018-11-05T01:36:55.341Z,17.00
2018-11-05T01:37:59.489Z,22.50
2018-11-05T01:39:04.470Z,23.02
2018-11-05T01:40:11.552Z,21.48
2018-11-05T01:41:16.232Z,24.25
2018-11-05T01:42:20.437Z,20.82
2018-11-05T01:43:25.397Z,20.75
2018-11-05T01:44:29.557Z,21.15
2018-11-05T01:45:33.759Z,19.15
2018-11-05T01:46:37.987Z,20.75
2018-11-05T01:47:42.936Z,19.80
2018-11-05T01:48:47.346Z,22.42
2018-11-05T01:49:52.405Z,23.65
2018-11-05T01:50:56.610Z,22.02
2018-11-05T01:52:00.885Z,19.32
2018-11-05T01:53:05.287Z,22.22
2018-11-05T01:54:09.697Z,22.70
2018-11-05T01:55:13.907Z,20.85
2018-11-05T01:56:18.242Z,21.45
2018-11-05T01:57:22.400Z,21.60
2018-11-05T01:58:26.535Z,21.73
2018-11-05T01:59:30.936Z,21.30
2018-11-05T02:00:35.136Z,24.90
2018-11-05T02:01:39.598Z,19.15
2018-11-05T02:02:44.638Z,22.37
2018-11-05T02:03:49.180Z,22.10
2018-11-05T02:04:53.501Z,21.50
2018-11-05T02:06:28.208Z,22.62
2018-11-05T02:07:32.411Z,25.82
2018-11-05T02:08:36.586Z,20.55
2018-11-05T02:09:42.176Z,21.20
2018-11-05T02:10:46.377Z,24.87
2018-11-05T02:11:50.837Z,24.25
2018-11-05T02:12:55.012Z,20.62
2018-11-05T02:13:59.818Z,24.18
2018-11-05T02:15:04.689Z,22.30
2018-11-05T02:16:10.149Z,22.48
2018-11-05T02:17:15.750Z,24.32
2018-11-05T02:18:19.923Z,23.55
2018-11-05T02:19:24.145Z,18.67
2018-11-05T02:20:28.343Z,21.85
2018-11-05T02:21:33.014Z,23.42
2018-11-05T02:22:37.439Z,22.48
2018-11-05T02:23:41.685Z,22.32
2018-11-05T02:24:45.938Z,21.30
2018-11-05T02:25:50.163Z,20.68
2018-11-05T02:26:54.834Z,22.32
2018-11-05T02:27:59.367Z,23.15
2018-11-05T02:29:04.215Z,21.52
2018-11-05T02:30:14.322Z,21.82
2018-11-05T02:31:18.513Z,24.90
2018-11-05T02:32:22.679Z,30.15
2018-11-05T02:33:26.858Z,22.00
2018-11-05T02:34:32.215Z,22.62
2018-11-05T02:35:36.382Z,24.50
2018-11-05T02:36:43.726Z,25.00
2018-11-05T02:37:48.295Z,23.15
2018-11-05T02:38:52.536Z,24.47
2018-11-05T02:39:57.724Z,24.55
2018-11-05T02:41:02.241Z,26.52
2018-11-05T02:42:06.609Z,25.68
2018-11-05T02:43:11.813Z,22.62
2018-11-05T02:44:16.030Z,22.45
2018-11-05T02:45:20.931Z,26.10
2018-11-05T02:46:25.250Z,24.23
2018-11-05T02:47:29.750Z,21.17
2018-11-05T02:48:33.956Z,23.30
2018-11-05T02:49:40.953Z,24.75
2018-11-05T02:50:52.837Z,24.55
2018-11-05T02:52:00.530Z,23.27
2018-11-05T02:53:06.734Z,22.42
2018-11-05T02:54:12.092Z,28.10
2018-11-05T02:55:16.579Z,24.40
2018-11-05T02:56:20.808Z,21.82
2018-11-05T02:57:24.951Z,23.98
2018-11-05T02:58:29.383Z,22.30
2018-11-05T02:59:34.252Z,21.65
2018-11-05T03:00:38.409Z,25.88
2018-11-05T03:01:42.620Z,22.27
2018-11-05T03:02:46.857Z,28.95
2018-11-05T03:03:51.035Z,22.45
2018-11-05T03:04:55.276Z,22.77
2018-11-05T03:05:59.422Z,21.85
2018-11-05T03:07:04.850Z,28.32
2018-11-05T03:08:10.397Z,22.32
2018-11-05T03:09:14.552Z,22.58
2018-11-05T03:10:18.905Z,27.07
2018-11-05T03:11:23.155Z,22.67
2018-11-05T03:12:27.800Z,21.05
2018-11-05T03:13:32.107Z,23.77
2018-11-05T03:16:32.551Z,21.95
2018-11-05T03:17:36.714Z,23.22
2018-11-05T03:18:41.346Z,22.13
2018-11-05T03:19:45.512Z,23.77
2018-11-05T03:20:49.806Z,25.57
2018-11-05T03:21:54.292Z,22.80
2018-11-05T03:22:58.664Z,21.52
2018-11-05T03:24:02.963Z,20.97
2018-11-05T03:25:09.858Z,19.60
2018-11-05T03:26:15.911Z,20.72
2018-11-05T03:27:20.301Z,21.90
2018-11-05T03:28:24.595Z,23.70
2018-11-05T03:29:28.740Z,25.27
2018-11-05T03:30:33.027Z,20.60
2018-11-05T03:31:37.572Z,22.20
2018-11-05T03:32:41.765Z,23.95
2018-11-05T03:33:46.107Z,22.75
2018-11-05T03:34:50.333Z,20.97
2018-11-05T03:35:54.590Z,20.45
2018-11-05T03:36:59.148Z,18.40
2018-11-05T03:38:03.464Z,23.77
2018-11-05T03:39:10.446Z,21.82
2018-11-05T03:40:14.969Z,22.00
2018-11-05T03:41:19.771Z,20.90
2018-11-05T03:42:24.116Z,18.02
2018-11-05T03:43:28.960Z,19.62
2018-11-05T03:44:33.231Z,22.13
2018-11-05T03:45:37.462Z,28.60
2018-11-05T03:46:41.614Z,22.67
2018-11-05T03:47:46.131Z,23.47
2018-11-05T03:48:50.353Z,24.85
2018-11-05T03:49:55.439Z,21.57
2018-11-05T03:50:59.561Z,21.97
2018-11-05T03:52:04.231Z,22.75
2018-11-05T03:53:08.360Z,26.68
2018-11-05T03:54:12.974Z,22.00
2018-11-05T03:55:18.265Z,28.00
2018-11-05T03:56:22.571Z,23.98
2018-11-05T03:57:26.735Z,18.87
2018-11-05T03:58:30.991Z,20.65
2018-11-05T03:59:35.746Z,18.98
2018-11-05T04:00:40.003Z,19.98
2018-11-05T04:01:44.303Z,21.30
2018-11-05T04:02:48.520Z,22.35
2018-11-05T04:03:52.689Z,19.98
2018-11-05T04:04:57.014Z,22.90
2018-11-05T04:06:01.167Z,24.40
2018-11-05T04:07:05.822Z,20.00
2018-11-05T04:08:09.961Z,24.32
2018-11-05T04:09:14.658Z,21.65
2018-11-05T04:10:18.868Z,19.42
2018-11-05T04:11:23.343Z,23.90
2018-11-05T04:12:33.322Z,22.22
2018-11-05T04:13:37.545Z,22.42
2018-11-05T04:14:41.849Z,21.62
2018-11-05T04:15:45.991Z,21.23
2018-11-05T04:16:50.162Z,22.67
2018-11-05T04:17:54.520Z,22.20
2018-11-05T04:18:59.297Z,19.90
2018-11-05T04:20:04.106Z,20.23
2018-11-05T04:21:08.322Z,21.55
2018-11-05T04:22:12.783Z,19.98
2018-11-05T04:23:17.025Z,21.52
2018-11-05T04:24:21.229Z,25.15
2018-11-05T04:25:26.062Z,24.47
2018-11-05T04:26:30.239Z,18.87
2018-11-05T04:27:36.351Z,20.70
2018-11-05T04:28:40.507Z,23.18
2018-11-05T04:29:44.717Z,20.85
2018-11-05T04:30:48.887Z,20.08
2018-11-05T04:31:53.125Z,23.20
2018-11-05T04:32:57.377Z,20.25
2018-11-05T04:34:05.344Z,21.02
2018-11-05T04:35:10.645Z,23.35
2018-11-05T04:36:15.255Z,23.12
2018-11-05T04:37:19.696Z,20.50
2018-11-05T04:38:24.227Z,20.43
2018-11-05T04:39:28.460Z,23.40
2018-11-05T04:40:33.082Z,24.40
2018-11-05T04:42:51.606Z,23.57
2018-11-05T04:44:09.963Z,23.60
2018-11-05T04:45:19.045Z,26.35
2018-11-05T04:46:23.560Z,22.62
2018-11-05T04:47:27.726Z,22.70
2018-11-05T04:48:31.995Z,22.22
2018-11-05T04:49:36.544Z,24.30
2018-11-05T04:50:41.132Z,22.32
2018-11-05T04:51:45.473Z,19.73
2018-11-05T04:52:50.328Z,22.87
2018-11-05T04:53:54.605Z,25.52
2018-11-05T04:54:58.843Z,20.72
2018-11-05T04:56:03.133Z,20.15
2018-11-05T04:57:07.432Z,24.45
2018-11-05T04:58:11.731Z,17.80
2018-11-05T04:59:15.982Z,24.25
2018-11-05T05:00:20.243Z,21.82
2018-11-05T05:01:24.870Z,21.93
2018-11-05T05:02:29.283Z,25.15
2018-11-05T05:03:33.859Z,20.75
2018-11-05T05:04:38.079Z,21.90
2018-11-05T05:05:42.367Z,24.05
2018-11-05T05:06:47.314Z,25.32
2018-11-05T05:07:53.420Z,22.90
2018-11-05T05:08:57.886Z,22.90
2018-11-05T05:10:02.282Z,25.45
2018-11-05T05:11:06.519Z,22.62
2018-11-05T05:12:11.107Z,24.18
2018-11-05T05:13:16.018Z,19.48
2018-11-05T05:14:20.179Z,23.05
2018-11-05T05:15:24.518Z,28.67
2018-11-05T05:16:33.306Z,25.08
2018-11-05T05:17:37.705Z,27.40
2018-11-05T05:18:42.018Z,24.45
2018-11-05T05:19:46.558Z,22.93
2018-11-05T05:20:54.607Z,22.90
2018-11-05T05:21:58.878Z,21.82
2018-11-05T05:23:03.767Z,23.52
2018-11-05T05:24:08.775Z,24.80
2018-11-05T05:25:13.656Z,22.85
2018-11-05T05:26:18.005Z,24.20
2018-11-05T05:27:22.357Z,21.55
2018-11-05T05:28:27.558Z,25.92
2018-11-05T05:29:31.887Z,22.62
2018-11-05T05:30:36.407Z,23.62
2018-11-05T05:31:41.044Z,21.68
2018-11-05T05:32:46.181Z,20.62
2018-11-05T05:33:50.379Z,24.20
2018-11-05T05:34:55.311Z,25.10
2018-11-05T05:35:59.508Z,23.98
2018-11-05T05:37:03.875Z,25.40
2018-11-05T05:38:08.189Z,22.82
2018-11-05T05:39:12.432Z,23.40
2018-11-05T05:40:18.281Z,24.70
2018-11-05T05:41:22.871Z,24.05
2018-11-05T05:42:27.029Z,19.95
2018-11-05T05:43:31.648Z,29.10
2018-11-05T05:44:35.814Z,21.37
2018-11-05T05:45:41.063Z,21.05
2018-11-05T05:46:45.606Z,23.45
2018-11-05T05:47:49.871Z,21.93
2018-11-05T05:48:54.052Z,22.90
2018-11-05T05:49:59.340Z,19.02
2018-11-05T05:51:04.374Z,22.98
2018-11-05T05:52:08.957Z,23.05
2018-11-05T05:53:13.191Z,20.05
2018-11-05T05:54:18.008Z,21.02
2018-11-05T05:55:22.299Z,20.45
2018-11-05T05:56:26.557Z,21.68
2018-11-05T05:57:30.853Z,24.87
2018-11-05T05:58:35.809Z,21.85
2018-11-05T05:59:41.113Z,22.02
2018-11-05T06:00:46.386Z,33.05
2018-11-05T06:01:51.535Z,20.75
2018-11-05T06:02:57.994Z,22.90
2018-11-05T06:04:08.085Z,18.73
2018-11-05T06:05:15.990Z,22.00
2018-11-05T06:06:20.562Z,19.50
2018-11-05T06:07:25.708Z,20.23
2018-11-05T06:08:30.285Z,21.87
2018-11-05T06:09:37.349Z,24.18
2018-11-05T06:10:42.498Z,25.62
2018-11-05T06:11:47.403Z,23.67
2018-11-05T06:12:52.114Z,20.90
2018-11-05T06:13:57.038Z,23.18
2018-11-05T06:15:03.593Z,20.50
2018-11-05T06:16:09.980Z,23.73
2018-11-05T06:17:14.879Z,21.12
2018-11-05T06:18:22.730Z,22.27
2018-11-05T06:19:27.953Z,21.57
2018-11-05T06:20:33.236Z,24.92
2018-11-05T06:21:37.461Z,21.70
2018-11-05T06:22:42.234Z,20.77
2018-11-05T06:23:47.323Z,24.55
2018-11-05T06:24:52.199Z,22.85
2018-11-05T06:25:56.468Z,23.55
2018-11-05T06:27:01.875Z,27.87
2018-11-05T06:28:06.398Z,22.73
2018-11-05T06:29:10.574Z,25.72
2018-11-05T06:30:16.878Z,22.85
2018-11-05T06:31:21.701Z,24.00
2018-11-05T06:32:26.016Z,24.25
2018-11-05T06:33:30.903Z,25.45
2018-11-05T06:34:35.299Z,21.37
2018-11-05T06:35:41.041Z,24.12
2018-11-05T06:36:45.678Z,23.67
2018-11-05T06:37:50.589Z,23.95
2018-11-05T06:38:56.171Z,22.00
2018-11-05T06:40:00.997Z,28.10
2018-11-05T06:41:06.738Z,24.25
2018-11-05T06:42:11.079Z,26.12
2018-11-05T06:43:15.453Z,26.10
2018-11-05T06:44:19.874Z,25.68
2018-11-05T06:45:24.756Z,23.52
2018-11-05T06:46:28.990Z,25.23
2018-11-05T06:47:35.038Z,26.90
2018-11-05T06:48:40.085Z,24.27
2018-11-05T06:49:44.979Z,24.72
2018-11-05T06:50:49.229Z,25.88
2018-11-05T06:51:53.552Z,23.92
2018-11-05T06:52:58.592Z,25.68
2018-11-05T06:54:03.462Z,25.27
2018-11-05T06:55:08.779Z,23.22
2018-11-05T06:56:13.819Z,30.75
2018-11-05T06:57:17.988Z,29.37
2018-11-05T06:58:22.689Z,22.93
2018-11-05T06:59:27.059Z,30.00
2018-11-05T07:00:31.805Z,24.87
2018-11-05T07:01:36.790Z,23.00
2018-11-05T07:02:41.319Z,23.83
2018-11-05T07:03:45.571Z,26.48
2018-11-05T07:04:49.807Z,23.83
2018-11-05T07:05:54.046Z,25.60
2018-11-05T07:07:02.330Z,23.55
2018-11-05T07:08:07.088Z,28.87
2018-11-05T07:09:11.939Z,28.77
2018-11-05T07:10:17.040Z,23.15
2018-11-05T07:11:22.416Z,27.67
2018-11-05T07:12:26.682Z,25.27
2018-11-05T07:13:30.949Z,27.52
2018-11-05T07:14:35.259Z,25.30
2018-11-05T07:15:39.518Z,28.70
2018-11-05T07:16:43.806Z,30.37
2018-11-05T07:17:49.173Z,21.40
2018-11-05T07:18:53.896Z,24.50
2018-11-05T07:19:57.808Z,24.80
2018-11-05T07:21:02.688Z,26.97
2018-11-05T07:22:06.910Z,26.85
2018-11-05T07:23:12.357Z,29.27
2018-11-05T07:24:17.010Z,21.48
2018-11-05T07:25:21.391Z,32.50
2018-11-05T07:26:25.827Z,23.60
2018-11-05T07:27:29.993Z,30.72
2018-11-05T07:28:34.581Z,25.80
2018-11-05T07:29:38.930Z,27.40
2018-11-05T07:30:43.809Z,25.50
2018-11-05T07:31:48.414Z,23.57
2018-11-05T07:32:53.858Z,25.50
2018-11-05T07:33:58.475Z,24.02
2018-11-05T07:35:03.887Z,22.22
2018-11-05T07:36:09.406Z,26.00
2018-11-05T07:37:14.186Z,34.35
2018-11-05T07:38:19.553Z,34.73
2018-11-05T07:39:23.767Z,34.00
2018-11-05T07:40:28.839Z,30.57
2018-11-05T07:41:33.086Z,32.23
2018-11-05T07:42:38.421Z,32.20
2018-11-05T07:43:45.783Z,30.75
2018-11-05T07:44:50.009Z,22.73
2018-11-05T07:45:54.862Z,24.37
2018-11-05T07:46:59.114Z,24.72
2018-11-05T07:48:03.319Z,26.12
2018-11-05T07:49:07.641Z,22.00
2018-11-05T07:50:13.815Z,24.70
2018-11-05T07:51:26.387Z,25.15
2018-11-05T07:52:30.638Z,24.07
2018-11-05T07:53:38.271Z,26.55
2018-11-05T07:54:42.534Z,24.18
2018-11-05T07:55:46.737Z,32.70
2018-11-05T07:58:26.939Z,26.73
2018-11-05T07:59:31.807Z,23.25
2018-11-05T08:00:40.982Z,23.18
2018-11-05T08:01:45.513Z,33.02
2018-11-05T08:02:51.298Z,23.77
2018-11-05T08:03:55.783Z,24.05
2018-11-05T08:05:00.273Z,28.73
2018-11-05T08:06:04.739Z,24.37
2018-11-05T08:07:09.047Z,29.65
2018-11-05T08:08:13.707Z,26.52
2018-11-05T08:09:19.475Z,30.00
2018-11-05T08:10:28.040Z,31.10
2018-11-05T08:11:32.798Z,23.80
2018-11-05T08:12:37.531Z,30.23
2018-11-05T08:13:42.902Z,24.85
2018-11-05T08:14:48.096Z,28.45
2018-11-05T08:15:52.931Z,27.90
2018-11-05T08:16:59.339Z,24.43
2018-11-05T08:18:03.883Z,29.27
2018-11-05T08:19:08.605Z,28.80
2018-11-05T08:20:13.008Z,24.45
2018-11-05T08:21:18.083Z,23.95
2018-11-05T08:22:22.626Z,26.10
2018-11-05T08:23:29.857Z,24.92
2018-11-05T08:24:36.178Z,24.52
2018-11-05T08:25:40.557Z,28.45
2018-11-05T08:26:45.838Z,28.57
2018-11-05T08:27:50.761Z,33.48
2018-11-05T08:28:56.074Z,28.02
2018-11-05T08:30:00.768Z,31.55
2018-11-05T08:31:16.685Z,32.80
2018-11-05T08:32:23.248Z,30.55
2018-11-05T08:33:31.719Z,32.50
2018-11-05T08:34:38.268Z,36.83
2018-11-05T08:35:42.924Z,32.33
2018-11-05T08:36:49.722Z,35.98
2018-11-05T08:37:57.263Z,29.65
2018-11-05T08:39:02.161Z,27.25
2018-11-05T08:40:12.605Z,29.10
2018-11-05T08:41:18.705Z,34.45
2018-11-05T08:42:23.261Z,35.08
2018-11-05T08:43:33.884Z,34.83
2018-11-05T08:44:39.068Z,35.60
2018-11-05T08:45:44.528Z,27.05
2018-11-05T08:46:49.242Z,30.48
2018-11-05T08:47:53.459Z,34.25
2018-11-05T08:48:58.018Z,33.48
2018-11-05T08:50:04.487Z,35.03
2018-11-05T08:51:10.670Z,34.92
2018-11-05T08:52:17.663Z,34.38
2018-11-05T08:53:23.238Z,31.33
2018-11-05T08:54:29.099Z,33.28
2018-11-05T08:55:33.680Z,35.03
2018-11-05T08:56:38.304Z,37.48
2018-11-05T08:57:43.015Z,31.65
2018-11-05T08:58:47.861Z,35.50
2018-11-05T08:59:53.874Z,40.65
2018-11-05T09:01:03.399Z,35.20
2018-11-05T09:02:07.597Z,32.00
2018-11-05T09:03:12.758Z,34.33
2018-11-05T09:06:28.025Z,34.50
2018-11-05T09:07:32.290Z,38.75
2018-11-05T09:08:36.676Z,33.98
2018-11-05T09:09:40.940Z,34.73
2018-11-05T09:10:45.689Z,38.10
2018-11-05T09:11:50.323Z,41.02
2018-11-05T09:12:55.040Z,34.13
2018-11-05T09:13:59.908Z,33.63
2018-11-05T09:15:04.629Z,31.57
2018-11-05T09:16:09.314Z,34.83
2018-11-05T09:17:14.372Z,36.03
2018-11-05T09:18:19.631Z,33.45
2018-11-05T09:19:24.486Z,41.77
2018-11-05T09:20:28.995Z,34.23
2018-11-05T09:21:33.235Z,33.55
2018-11-05T09:22:38.628Z,40.15
2018-11-05T09:23:43.277Z,31.37
2018-11-05T09:24:48.968Z,40.45
2018-11-05T09:25:53.728Z,35.52
2018-11-05T09:26:58.256Z,34.30
2018-11-05T09:28:03.309Z,39.67
2018-11-05T09:29:09.975Z,35.08
2018-11-05T09:30:18.319Z,35.03
2018-11-05T09:31:22.596Z,44.40
2018-11-05T09:32:28.771Z,48.90
2018-11-05T09:33:35.571Z,36.25
2018-11-05T09:34:41.165Z,31.82
2018-11-05T09:35:45.512Z,41.00
2018-11-05T09:36:50.308Z,35.73
2018-11-05T09:38:10.118Z,34.63
2018-11-05T09:39:15.648Z,38.00
2018-11-05T09:40:22.463Z,32.40
2018-11-05T09:41:27.927Z,32.73
2018-11-05T09:42:32.391Z,32.88
2018-11-05T09:43:37.290Z,35.28
2018-11-05T09:44:41.458Z,32.98
2018-11-05T09:45:46.226Z,31.52
2018-11-05T09:46:52.026Z,31.60
2018-11-05T09:47:56.317Z,32.98
2018-11-05T09:49:00.553Z,32.78
2018-11-05T09:50:05.713Z,33.23
2018-11-05T09:51:09.977Z,30.77
2018-11-05T09:52:14.731Z,30.10
2018-11-05T09:53:19.286Z,28.83
2018-11-05T09:54:26.502Z,39.30
2018-11-05T09:55:30.930Z,37.10
2018-11-05T09:56:35.577Z,40.15
2018-11-05T09:57:40.530Z,40.67
2018-11-05T09:58:46.133Z,32.67
2018-11-05T09:59:51.455Z,33.83
2018-11-05T10:01:03.701Z,34.13
2018-11-05T10:02:09.407Z,38.65
2018-11-05T10:03:17.347Z,31.50
2018-11-05T10:04:23.308Z,31.82
2018-11-05T10:05:28.935Z,33.28
2018-11-05T10:06:34.974Z,34.98
2018-11-05T10:07:50.584Z,32.50
2018-11-05T10:08:59.468Z,29.82
2018-11-05T10:10:05.037Z,30.90
2018-11-05T10:11:10.602Z,38.90
2018-11-05T10:12:14.773Z,28.00
2018-11-05T10:13:19.239Z,31.55
2018-11-05T10:14:24.210Z,33.10
2018-11-05T10:15:28.838Z,37.15
2018-11-05T10:16:33.956Z,32.67
2018-11-05T10:17:40.220Z,37.05
2018-11-05T10:18:44.874Z,32.35
2018-11-05T10:19:49.287Z,36.35
2018-11-05T10:20:54.857Z,33.45
2018-11-05T10:21:59.401Z,38.20
2018-11-05T10:23:04.217Z,44.48
2018-11-05T10:24:13.836Z,35.45
2018-11-05T10:25:20.621Z,32.65
2018-11-05T10:26:27.744Z,40.98
2018-11-05T10:27:31.978Z,37.93
2018-11-05T10:28:36.906Z,46.00
2018-11-05T10:29:41.466Z,35.78
2018-11-05T10:30:46.641Z,39.18
2018-11-05T10:31:55.688Z,31.80
2018-11-05T10:33:03.047Z,33.53
2018-11-05T10:34:07.567Z,44.10
2018-11-05T10:35:12.894Z,34.25
2018-11-05T10:36:20.575Z,38.65
2018-11-05T10:37:26.266Z,39.30
2018-11-05T10:38:33.825Z,33.38
2018-11-05T10:39:39.513Z,36.88
2018-11-05T10:40:43.842Z,39.53
2018-11-05T10:41:48.279Z,31.95
2018-11-05T10:42:53.593Z,30.90
2018-11-05T10:43:58.775Z,29.98
2018-11-05T10:45:04.832Z,40.45
2018-11-05T10:46:10.492Z,33.42
2018-11-05T10:47:15.712Z,30.08
2018-11-05T10:48:20.379Z,32.05
2018-11-05T10:49:25.962Z,33.15
2018-11-05T10:50:32.758Z,39.58
2018-11-05T10:51:37.499Z,33.25
2018-11-05T10:52:51.862Z,32.13
2018-11-05T10:53:56.926Z,36.08
2018-11-05T10:55:01.881Z,39.53
2018-11-05T10:56:07.569Z,37.20
2018-11-05T10:57:12.167Z,30.85
2018-11-05T10:58:16.409Z,30.20
2018-11-05T10:59:23.134Z,38.42
2018-11-05T11:00:33.110Z,48.20
2018-11-05T11:01:42.520Z,28.90
2018-11-05T11:02:52.885Z,36.20
2018-11-05T11:04:04.878Z,30.92
2018-11-05T11:05:10.021Z,31.82
2018-11-05T11:06:15.363Z,30.23
2018-11-05T11:07:19.639Z,34.80
2018-11-05T11:08:24.305Z,32.30
2018-11-05T11:09:29.396Z,30.00
2018-11-05T11:10:35.085Z,31.02
2018-11-05T11:11:39.651Z,37.85
2018-11-05T11:12:44.475Z,39.53
2018-11-05T11:13:49.477Z,34.53
2018-11-05T11:14:55.687Z,29.72
2018-11-05T11:16:00.238Z,29.10
2018-11-05T11:17:04.978Z,33.00
2018-11-05T11:18:09.430Z,30.50
2018-11-05T11:19:14.356Z,34.05
2018-11-05T11:20:19.367Z,30.37
2018-11-05T11:21:23.555Z,33.60
2018-11-05T11:22:27.811Z,35.28
2018-11-05T11:23:32.093Z,33.38
2018-11-05T11:24:36.974Z,26.48
2018-11-05T11:25:41.622Z,24.40
2018-11-05T11:26:45.799Z,26.02
2018-11-05T11:27:50.475Z,32.17
2018-11-05T11:28:55.791Z,30.70
2018-11-05T11:30:00.974Z,31.20
2018-11-05T11:31:05.473Z,29.23
2018-11-05T11:32:10.349Z,32.55
2018-11-05T11:33:14.886Z,38.20
2018-11-05T11:34:19.672Z,39.55
2018-11-05T11:35:24.176Z,33.70
2018-11-05T11:36:29.406Z,31.87
2018-11-05T11:37:34.783Z,31.00
2018-11-05T11:38:40.622Z,30.90
2018-11-05T11:39:44.894Z,37.00
2018-11-05T11:40:51.627Z,26.27
2018-11-05T11:41:56.264Z,39.03
2018-11-05T11:43:01.997Z,25.23
2018-11-05T11:44:07.999Z,32.17
2018-11-05T11:45:13.466Z,29.02
2018-11-05T11:46:18.270Z,34.67
2018-11-05T11:47:26.889Z,28.73
2018-11-05T11:48:32.457Z,29.65
2018-11-05T11:49:37.841Z,29.45
2018-11-05T11:50:43.895Z,30.00
2018-11-05T11:51:48.374Z,33.28
2018-11-05T11:52:53.524Z,29.70
2018-11-05T11:54:01.647Z,29.70
2018-11-05T11:55:10.627Z,29.87
2018-11-05T11:56:16.417Z,27.00
2018-11-05T11:57:20.863Z,35.35
2018-11-05T11:58:26.724Z,36.03
2018-11-05T11:59:32.196Z,32.17
2018-11-05T12:00:36.619Z,24.37
2018-11-05T12:01:46.969Z,30.75
2018-11-05T12:02:53.382Z,39.20
2018-11-05T12:03:57.812Z,30.23
2018-11-05T12:05:03.010Z,33.73
2018-11-05T12:06:07.386Z,29.45
2018-11-05T12:07:12.617Z,24.92
2018-11-05T12:08:17.104Z,29.75
2018-11-05T12:09:21.571Z,30.27
2018-11-05T12:10:26.728Z,39.50
2018-11-05T12:11:32.980Z,38.08
2018-11-05T12:12:39.292Z,28.40
2018-11-05T12:13:43.582Z,27.37
2018-11-05T12:14:48.341Z,30.90
2018-11-05T12:15:54.745Z,28.00
2018-11-05T12:16:59.543Z,35.08
2018-11-05T12:18:06.785Z,33.80
2018-11-05T12:19:11.915Z,33.58
2018-11-05T12:20:18.455Z,34.40
2018-11-05T12:21:24.921Z,34.75
2018-11-05T12:22:29.357Z,36.65
2018-11-05T12:23:34.375Z,36.88
2018-11-05T12:24:38.855Z,34.25
2018-11-05T12:25:44.698Z,30.15
2018-11-05T12:26:49.791Z,29.52
2018-11-05T12:27:55.321Z,29.27
2018-11-05T12:29:00.019Z,27.73
2018-11-05T12:30:06.236Z,37.98
2018-11-05T12:31:13.273Z,28.17
2018-11-05T12:32:20.650Z,32.30
2018-11-05T12:33:27.234Z,28.32
2018-11-05T12:34:32.477Z,33.08
2018-11-05T12:35:38.837Z,26.50
2018-11-05T12:36:44.249Z,30.72
2018-11-05T12:37:53.169Z,31.07
2018-11-05T12:38:58.920Z,29.80
2018-11-05T12:40:06.922Z,30.48
2018-11-05T12:41:11.924Z,38.67
2018-11-05T12:42:16.642Z,30.50
2018-11-05T12:43:21.097Z,33.50
2018-11-05T12:44:26.853Z,33.88
2018-11-05T12:45:31.752Z,32.48
2018-11-05T12:46:36.525Z,31.33
2018-11-05T12:47:41.539Z,30.55
2018-11-05T12:48:51.281Z,27.48
2018-11-05T12:50:02.740Z,28.98
2018-11-05T12:51:07.972Z,34.25
2018-11-05T12:52:12.347Z,30.12
2018-11-05T12:53:18.121Z,32.85
2018-11-05T12:54:23.698Z,42.48
2018-11-05T12:55:28.508Z,33.67
2018-11-05T12:56:33.806Z,33.20
2018-11-05T12:57:38.326Z,30.23
2018-11-05T12:58:44.827Z,30.20
2018-11-05T12:59:49.332Z,32.55
2018-11-05T13:00:53.573Z,34.70
2018-11-05T13:02:06.044Z,33.67
2018-11-05T13:03:12.507Z,40.83
2018-11-05T13:04:17.461Z,31.93
2018-11-05T13:05:25.581Z,33.35
2018-11-05T13:06:32.680Z,31.35
2018-11-05T13:07:38.300Z,33.75
2018-11-05T13:08:45.363Z,34.00
2018-11-05T13:09:50.754Z,35.08
2018-11-05T13:11:02.258Z,34.30
2018-11-05T13:12:07.891Z,32.73
2018-11-05T13:13:13.488Z,35.23
2018-11-05T13:14:18.723Z,31.87
2018-11-05T13:15:24.062Z,35.63
2018-11-05T13:16:29.629Z,31.02
2018-11-05T13:17:34.186Z,30.97
2018-11-05T13:18:39.160Z,36.80
2018-11-05T13:19:44.959Z,35.05
2018-11-05T13:20:50.511Z,31.57
2018-11-05T13:21:58.615Z,28.60
2018-11-05T13:23:04.281Z,28.12
2018-11-05T13:24:09.369Z,29.98
2018-11-05T13:25:14.327Z,30.08
2018-11-05T13:26:18.717Z,33.35
2018-11-05T13:27:24.377Z,27.07
2018-11-05T13:28:29.120Z,25.25
2018-11-05T13:29:34.230Z,29.63
2018-11-05T13:30:39.742Z,23.15
2018-11-05T13:31:44.207Z,28.17
2018-11-05T13:32:48.975Z,28.00
2018-11-05T13:33:55.911Z,26.40
2018-11-05T13:35:00.838Z,51.65
2018-11-05T13:36:08.255Z,33.18
2018-11-05T13:37:13.381Z,28.38
2018-11-05T13:38:18.203Z,33.88
2018-11-05T13:39:23.425Z,35.08
2018-11-05T13:40:29.679Z,34.53
2018-11-05T13:41:34.817Z,33.45
2018-11-05T13:42:39.865Z,30.05
2018-11-05T13:43:44.331Z,32.03
2018-11-05T13:44:48.977Z,26.68
2018-11-05T13:45:55.256Z,38.38
2018-11-05T13:46:59.308Z,32.50
2018-11-05T13:48:04.786Z,24.90
2018-11-05T13:49:09.983Z,35.03
2018-11-05T13:50:14.339Z,25.12
2018-11-05T13:51:19.336Z,25.37
2018-11-05T13:52:24.041Z,36.83
2018-11-05T13:53:28.345Z,28.95
2018-11-05T13:54:33.432Z,29.67
2018-11-05T13:55:38.305Z,29.92
2018-11-05T13:56:45.171Z,26.75
2018-11-05T13:57:50.258Z,29.00
2018-11-05T13:58:54.965Z,31.60
2018-11-05T14:00:03.399Z,27.93
2018-11-05T14:01:12.826Z,26.05
2018-11-05T14:02:17.110Z,30.27
2018-11-05T14:03:23.031Z,27.52
2018-11-05T14:04:29.769Z,34.95
2018-11-05T14:05:34.420Z,31.68
2018-11-05T14:06:39.742Z,29.92
2018-11-05T14:07:44.925Z,26.20
2018-11-05T14:08:50.093Z,27.65